createdAt,value
2022-11-05T00:00:58.118Z,12.40
2022-11-05T00:02:35.504Z,12.30
2022-11-05T02:02:15.697Z,12.90
2022-11-05T02:04:47.487Z,13.00
2022-11-05T02:07:17.289Z,12.90
2022-11-05T02:09:49.953Z,12.90
2022-11-05T02:12:19.620Z,12.90
2022-11-05T02:14:49.035Z,12.90
2022-11-05T02:17:27.833Z,12.80
2022-11-05T02:20:23.466Z,13.00
2022-11-05T02:23:30.338Z,13.00
2022-11-05T02:26:29.902Z,13.10
2022-11-05T02:29:42.828Z,13.10
2022-11-05T02:32:19.792Z,13.10
2022-11-05T02:34:56.681Z,13.00
2022-11-05T02:37:37.141Z,13.00
2022-11-05T02:40:14.701Z,13.00
2022-11-05T02:42:48.480Z,13.00
2022-11-05T02:45:29.503Z,13.00
2022-11-05T02:48:05.149Z,13.10
2022-11-05T02:50:38.859Z,13.10
2022-11-05T02:53:13.436Z,13.10
2022-11-05T02:55:46.388Z,13.10
2022-11-05T02:58:14.557Z,13.00
2022-11-05T03:00:49.310Z,13.10
2022-11-05T03:03:27.334Z,13.00
2022-11-05T03:06:18.850Z,13.00
2022-11-05T03:09:17.802Z,12.90
2022-11-05T03:11:58.097Z,12.90
2022-11-05T03:14:35.863Z,12.90
2022-11-05T03:17:10.906Z,12.90
2022-11-05T03:19:48.310Z,12.90
2022-11-05T03:22:24.588Z,13.00
2022-11-05T03:24:56.386Z,12.90
2022-11-05T03:27:28.179Z,13.00
2022-11-05T03:30:02.311Z,13.00
2022-11-05T03:32:36.629Z,12.90
2022-11-05T03:35:11.922Z,12.90
2022-11-05T03:37:43.506Z,12.80
2022-11-05T03:40:13.692Z,12.90
2022-11-05T03:42:46.195Z,13.00
2022-11-05T03:45:19.423Z,13.00
2022-11-05T03:47:50.910Z,13.00
2022-11-05T03:50:24.602Z,12.90
2022-11-05T03:52:55.204Z,13.00
2022-11-05T03:55:27.237Z,12.90
2022-11-05T03:57:56.596Z,12.90
2022-11-05T04:00:24.859Z,12.80
2022-11-05T04:02:53.129Z,12.90
2022-11-05T04:05:22.726Z,13.00
2022-11-05T04:08:13.880Z,13.00
2022-11-05T04:11:00.030Z,12.90
2022-11-05T04:13:28.321Z,13.00
2022-11-05T04:16:14.926Z,12.90
2022-11-05T04:18:44.169Z,12.90
2022-11-05T04:21:31.172Z,12.80
2022-11-05T04:24:11.496Z,12.80
2022-11-05T04:26:41.255Z,13.00
2022-11-05T04:29:27.214Z,12.80
2022-11-05T04:31:55.614Z,12.90
2022-11-05T04:34:23.945Z,12.90
2022-11-05T04:36:54.332Z,12.90
2022-11-05T04:39:22.824Z,13.00
2022-11-05T04:41:50.960Z,12.80
2022-11-05T04:44:22.205Z,12.90
2022-11-05T04:46:50.446Z,12.70
2022-11-05T04:49:18.624Z,12.70
2022-11-05T04:51:47.066Z,12.70
2022-11-05T04:54:16.848Z,12.70
2022-11-05T04:56:44.978Z,12.70
2022-11-05T04:59:13.104Z,12.80
2022-11-05T05:01:41.223Z,12.80
2022-11-05T05:04:09.311Z,12.70
2022-11-05T05:06:38.378Z,12.60
2022-11-05T05:09:06.822Z,12.50
2022-11-05T05:11:36.417Z,12.50
2022-11-05T05:14:04.537Z,12.30
2022-11-05T05:16:32.610Z,12.20
2022-11-05T05:19:00.658Z,12.10
2022-11-05T05:21:39.638Z,12.00
2022-11-05T05:24:09.678Z,12.00
2022-11-05T05:26:41.299Z,12.00
2022-11-05T05:29:10.405Z,11.90
2022-11-05T05:31:38.991Z,11.90
2022-11-05T05:34:13.522Z,11.90
2022-11-05T05:36:41.977Z,12.00
2022-11-05T05:39:11.528Z,12.10
2022-11-05T05:41:41.448Z,12.30
2022-11-05T05:44:09.909Z,12.20
2022-11-05T05:46:38.255Z,12.30
2022-11-05T05:49:12.144Z,12.40
2022-11-05T05:51:40.865Z,12.40
2022-11-05T05:54:09.114Z,12.60
2022-11-05T05:56:37.233Z,12.50
2022-11-05T05:59:08.015Z,12.40
2022-11-05T06:01:36.436Z,12.30
2022-11-05T06:04:04.946Z,12.30
2022-11-05T06:06:33.967Z,12.30
2022-11-05T06:09:05.434Z,12.20
2022-11-05T06:11:33.906Z,12.20
2022-11-05T06:14:02.207Z,12.30
2022-11-05T06:16:35.701Z,12.20
2022-11-05T06:19:04.136Z,12.20
2022-11-05T06:21:32.247Z,12.20
2022-11-05T06:24:02.028Z,12.30
2022-11-05T06:26:30.634Z,12.20
2022-11-05T06:28:59.119Z,12.30
2022-11-05T06:31:27.641Z,12.20
2022-11-05T06:33:57.479Z,12.30
2022-11-05T06:36:26.153Z,12.40
2022-11-05T06:38:54.442Z,12.40
2022-11-05T06:41:22.808Z,12.30
2022-11-05T06:43:51.224Z,12.30
2022-11-05T06:46:19.922Z,12.30
2022-11-05T06:48:49.707Z,12.50
2022-11-05T06:51:19.620Z,12.50
2022-11-05T06:53:47.805Z,12.50
2022-11-05T06:56:16.308Z,12.50
2022-11-05T06:58:44.386Z,12.50
2022-11-05T07:01:12.953Z,12.40
2022-11-05T07:03:41.214Z,12.30
2022-11-05T07:06:09.659Z,12.40
2022-11-05T07:08:39.435Z,12.40
2022-11-05T07:11:07.962Z,12.40
2022-11-05T07:13:36.030Z,12.30
2022-11-05T07:16:04.181Z,12.20
2022-11-05T07:18:32.247Z,12.10
2022-11-05T07:21:00.708Z,12.10
2022-11-05T07:23:28.772Z,11.90
2022-11-05T07:25:58.328Z,11.90
2022-11-05T07:28:26.630Z,11.90
2022-11-05T07:30:55.483Z,12.10
2022-11-05T07:33:23.677Z,12.10
2022-11-05T07:35:51.780Z,12.10
2022-11-05T07:38:20.094Z,12.20
2022-11-05T07:40:48.154Z,12.20
2022-11-05T07:43:17.909Z,12.40
2022-11-05T07:45:46.826Z,12.30
2022-11-05T07:48:15.108Z,12.40
2022-11-05T07:50:43.195Z,12.30
2022-11-05T07:53:13.566Z,12.20
2022-11-05T07:55:42.173Z,12.30
2022-11-05T07:58:10.832Z,12.30
2022-11-05T08:00:40.417Z,12.40
2022-11-05T08:03:11.833Z,12.20
2022-11-05T08:05:43.267Z,12.30
2022-11-05T08:08:12.672Z,12.40
2022-11-05T08:10:41.148Z,12.40
2022-11-05T08:13:10.489Z,12.40
2022-11-05T08:15:40.822Z,12.40
2022-11-05T08:18:12.323Z,12.50
2022-11-05T08:20:40.622Z,12.60
2022-11-05T08:23:09.709Z,12.50
2022-11-05T08:25:39.660Z,12.50
2022-11-05T08:28:09.497Z,12.50
2022-11-05T08:30:37.835Z,12.40
2022-11-05T08:33:09.473Z,12.40
2022-11-05T08:35:39.815Z,12.40
2022-11-05T08:38:11.133Z,12.60
2022-11-05T08:40:41.885Z,12.60
2022-11-05T08:43:12.517Z,12.40
2022-11-05T08:45:42.142Z,12.40
2022-11-05T08:48:14.902Z,12.40
2022-11-05T08:50:43.966Z,12.40
2022-11-05T08:53:12.749Z,12.40
2022-11-05T08:55:41.594Z,12.30
2022-11-05T08:58:14.952Z,12.20
2022-11-05T09:00:43.693Z,12.20
2022-11-05T09:03:14.284Z,12.10
2022-11-05T09:05:44.965Z,12.20
2022-11-05T09:08:15.926Z,12.10
2022-11-05T09:10:44.830Z,12.00
2022-11-05T09:13:18.927Z,12.10
2022-11-05T09:15:48.983Z,12.20
2022-11-05T09:18:20.317Z,12.20
2022-11-05T09:20:48.697Z,12.30
2022-11-05T09:23:21.432Z,12.30
2022-11-05T09:25:49.537Z,12.40
2022-11-05T09:28:20.348Z,12.40
2022-11-05T09:30:50.650Z,12.40
2022-11-05T09:33:22.636Z,12.40
2022-11-05T09:35:51.803Z,12.40
2022-11-05T09:38:20.494Z,12.40
2022-11-05T09:40:58.571Z,12.60
2022-11-05T09:43:32.063Z,12.50
2022-11-05T09:46:05.936Z,12.60
2022-11-05T09:48:36.508Z,12.50
2022-11-05T09:51:06.652Z,12.70
2022-11-05T09:53:39.248Z,12.50
2022-11-05T09:56:16.220Z,12.40
2022-11-05T09:58:49.774Z,12.50
2022-11-05T10:01:23.438Z,12.70
2022-11-05T10:03:56.923Z,12.60
2022-11-05T10:06:28.305Z,12.60
2022-11-05T10:09:03.031Z,12.70
2022-11-05T10:11:36.394Z,12.70
2022-11-05T10:14:13.806Z,12.80
2022-11-05T10:16:47.110Z,12.80
2022-11-05T10:19:22.036Z,12.80
2022-11-05T10:22:06.321Z,13.00
2022-11-05T10:24:35.177Z,13.10
2022-11-05T10:27:03.996Z,13.40
2022-11-05T10:29:35.422Z,13.40
2022-11-05T10:32:07.255Z,13.40
2022-11-05T10:34:40.206Z,13.50
2022-11-05T10:37:08.350Z,13.50
2022-11-05T10:39:36.489Z,13.30
2022-11-05T10:42:39.304Z,13.40
2022-11-05T10:45:18.470Z,13.50
2022-11-05T10:48:03.083Z,13.50
2022-11-05T10:50:33.514Z,13.50
2022-11-05T10:53:05.190Z,13.40
2022-11-05T10:55:36.156Z,13.50
2022-11-05T10:58:19.580Z,13.60
2022-11-05T11:01:12.387Z,14.00
2022-11-05T11:03:45.106Z,14.10
2022-11-05T11:06:34.904Z,14.20
2022-11-05T11:09:06.168Z,14.50
2022-11-05T11:11:37.023Z,14.70
2022-11-05T11:14:08.003Z,14.60
2022-11-05T11:16:57.454Z,14.50
2022-11-05T11:19:29.372Z,14.60
2022-11-05T11:22:23.567Z,14.90
2022-11-05T11:24:54.039Z,14.80
2022-11-05T11:27:29.155Z,14.60
2022-11-05T11:30:00.293Z,14.50
2022-11-05T11:32:34.759Z,14.40
2022-11-05T11:35:03.929Z,14.50
2022-11-05T11:37:41.986Z,14.80
2022-11-05T11:40:21.662Z,14.90
2022-11-05T11:42:52.495Z,14.70
2022-11-05T11:45:31.338Z,14.50
2022-11-05T11:48:09.524Z,14.30
2022-11-05T11:50:42.984Z,14.50
2022-11-05T11:53:30.145Z,14.40
2022-11-05T11:56:14.062Z,14.60
2022-11-05T11:58:45.560Z,14.70
2022-11-05T12:01:48.642Z,14.90
2022-11-05T12:04:44.522Z,15.10
2022-11-05T12:07:29.333Z,15.20
2022-11-05T12:10:15.511Z,15.20
2022-11-05T12:12:54.827Z,15.30
2022-11-05T12:15:46.757Z,15.40
2022-11-05T12:18:30.678Z,15.50
2022-11-05T12:21:25.007Z,15.20
2022-11-05T12:24:21.917Z,15.30
2022-11-05T12:27:03.793Z,15.30
2022-11-05T12:29:49.738Z,15.30
2022-11-05T12:32:45.830Z,15.30
2022-11-05T12:35:25.887Z,15.20
2022-11-05T12:38:06.404Z,15.10
2022-11-05T13:54:15.665Z,12.70
2022-11-05T14:06:08.702Z,12.80
2022-11-05T14:10:11.667Z,12.40
2022-11-05T14:16:05.164Z,12.80
2022-11-05T14:18:59.289Z,12.60
2022-11-05T14:21:50.866Z,12.60
2022-11-05T14:24:51.581Z,12.50
2022-11-05T14:27:57.040Z,12.50
2022-11-05T14:30:49.356Z,12.60
2022-11-05T14:33:58.280Z,12.60
2022-11-05T14:36:41.270Z,12.60
2022-11-05T14:39:50.768Z,12.50
2022-11-05T14:42:42.779Z,12.70
2022-11-05T14:45:35.654Z,12.80
2022-11-05T14:49:09.066Z,12.90
2022-11-05T14:51:54.028Z,12.90
2022-11-05T14:54:27.767Z,13.10
2022-11-05T15:00:15.435Z,13.10
2022-11-05T15:03:02.131Z,12.90
2022-11-05T15:05:53.663Z,12.80
2022-11-05T15:08:59.544Z,12.70
2022-11-05T15:11:47.678Z,12.70
2022-11-05T15:14:26.177Z,12.90
2022-11-05T15:17:20.269Z,12.90
2022-11-05T15:19:50.627Z,12.90
2022-11-05T15:22:32.568Z,13.10
2022-11-05T15:25:02.564Z,13.40
2022-11-05T15:27:52.882Z,13.60
2022-11-05T15:30:24.796Z,13.60
2022-11-05T15:32:53.814Z,13.60
2022-11-05T15:44:47.429Z,13.70
2022-11-05T15:47:43.220Z,13.90
2022-11-05T15:50:17.539Z,13.80
2022-11-05T15:53:27.492Z,13.50
2022-11-05T15:56:57.148Z,13.50
2022-11-05T16:00:00.730Z,13.50
2022-11-05T16:02:48.461Z,13.40
2022-11-05T16:06:05.809Z,13.40
2022-11-05T16:09:52.682Z,13.30
2022-11-05T16:13:43.522Z,13.20
2022-11-05T16:16:07.769Z,13.00
2022-11-05T16:18:52.767Z,12.70
2022-11-05T16:21:32.031Z,12.40
2022-11-05T16:24:29.359Z,12.50
2022-11-05T16:27:21.280Z,12.50
2022-11-05T16:30:23.890Z,12.40
2022-11-05T16:33:27.092Z,12.40
2022-11-05T16:36:13.130Z,12.40
2022-11-05T16:38:49.391Z,12.40
2022-11-05T16:41:22.945Z,12.10
2022-11-05T16:44:18.443Z,12.00
2022-11-05T16:46:55.839Z,12.00
2022-11-05T16:49:31.657Z,11.90
2022-11-05T16:52:09.998Z,11.50
2022-11-05T16:54:50.981Z,11.60
2022-11-05T16:57:27.057Z,11.40
2022-11-05T17:00:15.978Z,11.50
2022-11-05T17:02:53.844Z,11.40
2022-11-05T17:05:35.556Z,11.30
2022-11-05T17:08:17.701Z,11.30
2022-11-05T17:10:53.136Z,11.40
2022-11-05T17:13:46.608Z,11.20
2022-11-05T17:16:37.643Z,11.20
2022-11-05T17:19:30.457Z,11.20
2022-11-05T17:22:26.196Z,11.20
2022-11-05T17:25:10.272Z,11.20
2022-11-05T17:27:43.692Z,10.90
2022-11-05T17:30:16.841Z,10.70
2022-11-05T17:32:50.360Z,10.80
2022-11-05T17:35:20.812Z,10.90
2022-11-05T17:37:52.253Z,11.00
2022-11-05T17:40:28.573Z,11.10
2022-11-05T17:46:56.624Z,11.00
2022-11-05T17:55:19.901Z,10.60
2022-11-05T17:57:39.593Z,10.30
2022-11-05T18:00:22.619Z,10.20
2022-11-05T18:02:55.661Z,10.40
2022-11-05T18:05:34.713Z,10.50
2022-11-05T18:08:29.270Z,10.60
2022-11-05T18:11:05.102Z,10.60
2022-11-05T18:13:39.731Z,10.70
2022-11-05T18:16:22.487Z,10.50
2022-11-05T18:18:59.626Z,10.30
2022-11-05T18:21:45.823Z,10.10
2022-11-05T18:24:29.305Z,9.90
2022-11-05T18:26:57.985Z,9.90
2022-11-05T18:29:29.849Z,9.80
2022-11-05T18:32:07.935Z,10.00
2022-11-05T18:34:49.189Z,9.80
2022-11-05T18:37:23.349Z,9.90
2022-11-05T18:39:55.164Z,9.90
2022-11-05T18:42:25.389Z,10.10
2022-11-05T18:44:59.427Z,10.20
2022-11-05T18:47:37.499Z,10.20
2022-11-05T18:50:12.238Z,10.20
2022-11-05T18:52:43.533Z,9.80
2022-11-05T18:55:12.039Z,9.90
2022-11-05T18:57:46.825Z,10.00
2022-11-05T19:00:17.835Z,10.10
2022-11-05T19:02:46.335Z,10.00
2022-11-05T19:05:28.626Z,10.00
2022-11-05T19:08:01.649Z,10.10
2022-11-05T19:10:30.534Z,10.00
2022-11-05T19:13:07.174Z,10.00
2022-11-05T19:15:50.952Z,10.10
2022-11-05T19:18:33.587Z,10.00
2022-11-05T19:21:12.176Z,10.00
2022-11-05T19:23:41.102Z,10.20
2022-11-05T19:26:28.817Z,10.20
2022-11-05T19:29:02.503Z,10.20
2022-11-05T19:31:38.070Z,10.20
2022-11-05T19:41:23.251Z,10.20
2022-11-05T19:43:25.962Z,10.50
2022-11-05T19:46:06.699Z,10.50
2022-11-05T19:48:40.540Z,10.50
2022-11-05T19:51:17.787Z,10.20
2022-11-05T19:53:46.497Z,10.10
2022-11-05T19:56:16.667Z,10.00
2022-11-05T19:58:46.899Z,9.90
2022-11-05T20:01:21.046Z,9.70
2022-11-05T20:03:52.507Z,9.60
2022-11-05T20:06:29.381Z,9.50
2022-11-05T20:09:20.615Z,9.40
2022-11-05T20:11:53.288Z,9.50
2022-11-05T20:15:10.474Z,9.50
2022-11-05T20:18:18.623Z,9.50
2022-11-05T20:21:16.371Z,9.60
2022-11-05T20:24:03.856Z,9.50
2022-11-05T20:26:38.068Z,9.90
2022-11-05T20:49:25.121Z,9.50
2022-11-05T20:52:04.205Z,9.30
2022-11-05T21:08:38.336Z,9.60
2022-11-05T21:11:19.550Z,9.30
2022-11-05T21:16:48.500Z,9.30
2022-11-05T21:19:27.320Z,9.20
2022-11-05T21:22:16.160Z,8.90
2022-11-05T21:28:03.859Z,8.80
2022-11-05T21:30:49.515Z,8.80
2022-11-05T21:33:26.205Z,8.80
2022-11-05T21:35:55.926Z,8.50
2022-11-05T21:38:29.919Z,8.50
2022-11-05T21:41:11.411Z,8.70
2022-11-05T21:43:42.873Z,8.60
2022-11-05T21:46:16.730Z,8.60
2022-11-05T21:49:07.967Z,8.40
2022-11-05T21:51:57.542Z,8.50
2022-11-05T21:54:46.074Z,8.70
2022-11-05T21:57:42.856Z,8.80
2022-11-05T22:00:15.272Z,8.90
2022-11-05T22:02:45.197Z,8.90
2022-11-05T22:05:19.743Z,8.90
2022-11-05T22:08:04.776Z,9.10
2022-11-05T22:10:36.661Z,9.20
2022-11-05T22:13:12.821Z,9.20
2022-11-05T22:15:46.923Z,9.10
2022-11-05T22:18:16.878Z,9.10
2022-11-05T22:20:53.929Z,9.10
2022-11-05T22:23:23.346Z,9.00
2022-11-05T22:26:03.031Z,8.60
2022-11-05T22:28:37.964Z,8.50
2022-11-05T22:31:20.458Z,8.50
2022-11-05T22:34:09.581Z,8.50
2022-11-05T22:36:49.411Z,8.50
2022-11-05T22:39:23.542Z,8.40
2022-11-05T22:42:03.021Z,8.60
2022-11-05T22:44:43.066Z,8.60
2022-11-05T22:47:14.675Z,8.60
2022-11-05T22:49:58.877Z,8.70
2022-11-05T22:52:39.205Z,8.80
2022-11-05T22:55:14.862Z,9.00
2022-11-05T22:57:46.616Z,8.90
2022-11-05T23:00:25.120Z,8.90
2022-11-05T23:03:05.056Z,9.00
2022-11-05T23:06:08.359Z,8.90
2022-11-05T23:09:15.925Z,9.10
2022-11-05T23:11:57.998Z,9.10
2022-11-05T23:26:54.132Z,8.90
2022-11-05T23:29:25.362Z,8.90
2022-11-05T23:32:26.951Z,8.70
2022-11-05T23:36:54.866Z,8.80
2022-11-05T23:44:50.775Z,8.70
2022-11-05T23:48:08.138Z,9.00
2022-11-05T23:51:13.938Z,9.20
2022-11-05T23:54:04.842Z,9.20
2022-11-05T23:56:47.890Z,9.20
